Time;durP1;ratioP1;P1;durP2;ratioP2;P2;SDS_P1;SDS_P2;PMS_P1;PMS_P2;Temp;Humidity;BMP_temperature;BMP_pressure;BME280_temperature;BME280_humidity;BME280_pressure;Samples;Min_cycle;Max_cycle;Signal;HPM_P1;HPM_P2
2023/06/14 00:00:52;;;;;;;13.03;10.50;;;22.60;96.10;;;;;;5000995;28;20046;-46
2023/06/14 00:03:21;;;;;;;10.13;9.23;;;22.50;95.80;;;;;;5019698;28;20033;-47
2023/06/14 00:05:48;;;;;;;10.50;9.40;;;22.50;96.00;;;;;;5015186;28;20033;-46
2023/06/14 00:08:14;;;;;;;11.50;10.40;;;22.40;96.10;;;;;;5026968;28;20050;-47
2023/06/14 00:10:41;;;;;;;10.02;9.13;;;22.30;96.40;;;;;;5022140;28;20049;-46
2023/06/14 00:13:11;;;;;;;9.38;8.38;;;22.30;96.40;;;;;;5019215;28;20029;-46
2023/06/14 00:15:37;;;;;;;9.80;8.32;;;22.30;96.00;;;;;;5010825;28;20030;-46
2023/06/14 00:18:04;;;;;;;9.75;8.75;;;22.30;96.20;;;;;;5027906;28;20388;-47
2023/06/14 00:20:32;;;;;;;9.75;8.75;;;22.20;96.10;;;;;;5024144;28;20038;-46
2023/06/14 00:23:01;;;;;;;10.45;9.50;;;22.20;96.10;;;;;;5024786;28;20049;-46
2023/06/14 00:25:27;;;;;;;13.82;9.82;;;22.30;96.00;;;;;;5017409;28;20030;-46
2023/06/14 00:27:54;;;;;;;10.67;9.67;;;22.30;95.70;;;;;;5013675;28;20037;-46
2023/06/14 00:30:20;;;;;;;;;;;22.30;95.70;;;;;;5003141;28;20088;-46
2023/06/14 00:32:46;;;;;;;11.07;8.82;;;22.30;95.30;;;;;;5024410;28;19935;-46
2023/06/14 00:35:13;;;;;;;9.88;8.10;;;22.30;95.50;;;;;;5005370;28;20036;-48
2023/06/14 00:37:39;;;;;;;15.68;9.48;;;22.30;95.40;;;;;;5016552;28;20041;-46
2023/06/14 00:40:05;;;;;;;10.18;9.18;;;22.30;95.50;;;;;;5020930;28;20092;-46
2023/06/14 00:42:32;;;;;;;9.93;9.02;;;22.30;95.70;;;;;;5014573;28;20053;-46
2023/06/14 00:44:58;;;;;;;10.88;8.98;;;22.30;95.60;;;;;;5012903;28;20557;-47
2023/06/14 00:47:24;;;;;;;11.50;10.40;;;22.30;95.30;;;;;;4996811;28;20026;-46
2023/06/14 00:49:52;;;;;;;11.82;10.63;;;22.30;95.60;;;;;;5012976;28;20500;-48
2023/06/14 00:52:18;;;;;;;10.57;9.57;;;22.20;96.30;;;;;;5027607;28;20021;-46
2023/06/14 00:54:44;;;;;;;11.40;10.23;;;22.00;97.40;;;;;;4999712;28;20037;-50
2023/06/14 00:57:11;;;;;;;11.73;10.63;;;21.90;97.80;;;;;;5033947;28;20056;-47
2023/06/14 00:59:43;;;;;;;10.77;9.68;;;21.90;98.00;;;;;;4999959;28;20635;-46
2023/06/14 01:02:09;;;;;;;11.48;10.23;;;21.90;97.50;;;;;;5015978;28;20068;-47
2023/06/14 01:04:38;;;;;;;10.85;9.82;;;22.00;97.90;;;;;;5006386;28;20040;-46
2023/06/14 01:07:15;;;;;;;11.18;10.07;;;22.10;97.80;;;;;;5009667;28;20032;-46
2023/06/14 01:10:08;;;;;;;;;;;22.10;97.50;;;;;;5017297;28;20412;-47
2023/06/14 01:12:45;;;;;;;11.70;10.60;;;22.10;96.00;;;;;;5026091;28;19917;-46
2023/06/14 01:15:13;;;;;;;11.90;10.80;;;22.10;97.40;;;;;;5003088;28;20041;-46
2023/06/14 01:17:43;;;;;;;11.57;10.07;;;22.10;98.00;;;;;;5001271;28;20036;-46
2023/06/14 01:20:15;;;;;;;12.13;10.82;;;22.10;98.00;;;;;;5031610;28;20474;-46
2023/06/14 01:22:53;;;;;;;12.00;10.68;;;22.00;98.10;;;;;;5005693;28;20033;-46
2023/06/14 01:25:22;;;;;;;13.57;11.77;;;22.10;98.20;;;;;;5005356;28;20176;-46
2023/06/14 01:27:58;;;;;;;13.70;12.35;;;22.10;98.30;;;;;;5003240;28;20053;-46
2023/06/14 01:30:26;;;;;;;13.52;12.20;;;22.10;98.10;;;;;;5028431;28;20025;-50
2023/06/14 01:32:53;;;;;;;;;;;22.10;98.40;;;;;;5004045;28;20026;-46
2023/06/14 01:35:19;;;;;;;14.00;11.55;;;22.10;96.70;;;;;;5033430;28;19909;-46
2023/06/14 01:37:47;;;;;;;13.23;11.98;;;22.00;98.40;;;;;;5030775;28;20056;-47
2023/06/14 01:40:15;;;;;;;13.27;11.98;;;22.00;98.10;;;;;;5011974;28;20451;-46
2023/06/14 01:42:42;;;;;;;14.63;13.13;;;22.10;98.20;;;;;;5013253;28;20026;-46
2023/06/14 01:45:10;;;;;;;12.38;11.23;;;22.10;98.30;;;;;;5011723;28;20053;-48
2023/06/14 01:47:36;;;;;;;13.40;12.10;;;22.00;97.80;;;;;;5013244;28;20049;-47
2023/06/14 01:50:05;;;;;;;14.17;12.73;;;22.10;97.70;;;;;;5015228;28;20574;-46
2023/06/14 01:52:31;;;;;;;14.43;13.02;;;22.10;97.50;;;;;;5032626;28;20504;-46
2023/06/14 01:54:57;;;;;;;15.32;13.75;;;22.10;98.10;;;;;;5032616;28;20108;-47
2023/06/14 01:57:25;;;;;;;14.68;12.85;;;22.00;97.90;;;;;;5015292;28;20404;-48
2023/06/14 01:59:51;;;;;;;14.95;13.05;;;22.00;97.90;;;;;;5015196;28;20112;-46
2023/06/14 02:02:17;;;;;;;13.70;12.33;;;22.00;98.20;;;;;;5014811;28;20034;-47
2023/06/14 02:04:42;;;;;;;14.93;13.00;;;21.90;98.20;;;;;;5053533;22;20040;-54
2023/06/14 02:07:08;;;;;;;14.97;13.20;;;21.90;98.70;;;;;;5071217;28;20379;-51
2023/06/14 02:09:35;;;;;;;16.42;14.27;;;21.90;99.10;;;;;;5086426;28;20474;-54
2023/06/14 02:12:01;;;;;;;15.82;14.23;;;21.90;98.70;;;;;;5054192;28;20469;-53
2023/06/14 02:14:30;;;;;;;15.52;14.07;;;21.90;98.80;;;;;;5083437;28;20152;-51
2023/06/14 02:16:55;;;;;;;15.60;13.88;;;21.90;98.50;;;;;;5091103;28;20114;-51
2023/06/14 02:19:21;;;;;;;13.70;12.50;;;21.90;99.10;;;;;;5072953;28;20067;-51
2023/06/14 02:21:47;;;;;;;17.25;15.40;;;21.80;99.10;;;;;;5068021;28;20029;-52
2023/06/14 02:24:13;;;;;;;15.88;14.38;;;21.80;99.10;;;;;;5056568;28;20027;-52
2023/06/14 02:26:41;;;;;;;16.90;14.33;;;21.80;99.20;;;;;;5060008;28;20024;-55
2023/06/14 02:29:09;;;;;;;17.67;15.60;;;21.80;99.30;;;;;;5058719;28;20506;-54
2023/06/14 02:31:36;;;;;;;17.75;15.18;;;21.80;99.40;;;;;;5055464;28;20029;-51
2023/06/14 02:34:02;;;;;;;18.40;16.58;;;21.80;99.40;;;;;;5054751;28;20037;-53
2023/06/14 02:36:31;;;;;;;19.60;17.70;;;21.80;99.60;;;;;;5081948;28;20028;-50
2023/06/14 02:38:57;;;;;;;20.05;18.05;;;21.70;99.60;;;;;;5050118;28;20438;-53
2023/06/14 02:41:25;;;;;;;19.77;17.88;;;21.70;99.90;;;;;;5055365;28;20116;-53
2023/06/14 02:43:53;;;;;;;19.63;17.83;;;21.70;99.80;;;;;;5068023;28;20396;-54
2023/06/14 02:46:19;;;;;;;20.00;18.10;;;21.70;99.90;;;;;;5057426;28;20494;-53
2023/06/14 02:48:45;;;;;;;20.50;18.37;;;21.70;99.90;;;;;;5060510;28;20021;-51
2023/06/14 02:51:12;;;;;;;20.33;18.33;;;21.70;99.90;;;;;;5058202;28;20025;-54
2023/06/14 02:53:38;;;;;;;19.40;17.40;;;21.70;99.90;;;;;;5064230;28;20413;-54
2023/06/14 02:56:05;;;;;;;20.17;18.13;;;21.60;99.90;;;;;;5063912;28;20029;-52
2023/06/14 02:58:31;;;;;;;18.65;16.90;;;21.70;99.90;;;;;;5045797;28;20033;-51
2023/06/14 03:00:57;;;;;;;18.27;16.55;;;21.70;99.90;;;;;;5057616;28;20032;-53
2023/06/14 03:03:24;;;;;;;18.85;17.05;;;21.70;99.80;;;;;;5057010;28;20536;-52
2023/06/14 03:05:54;;;;;;;22.88;19.75;;;21.70;99.80;;;;;;5066030;28;20070;-52
2023/06/14 03:08:26;;;;;;;19.73;17.83;;;21.60;99.80;;;;;;5056620;28;20048;-55
2023/06/14 03:10:56;;;;;;;19.80;17.77;;;21.70;99.90;;;;;;5067643;28;20021;-54
2023/06/14 03:13:23;;;;;;;20.20;18.25;;;21.60;99.90;;;;;;5055126;28;20049;-51
2023/06/14 03:15:51;;;;;;;19.90;18.00;;;21.60;99.90;;;;;;5065899;28;20513;-57
2023/06/14 03:18:19;;;;;;;19.90;17.90;;;21.60;99.90;;;;;;5069710;28;20107;-57
2023/06/14 03:20:45;;;;;;;20.60;18.65;;;21.60;99.90;;;;;;5076197;28;20025;-55
2023/06/14 03:23:12;;;;;;;21.92;19.08;;;21.60;99.90;;;;;;5055981;28;20031;-55
2023/06/14 03:25:41;;;;;;;20.38;18.27;;;21.60;99.90;;;;;;5086593;28;20430;-54
2023/06/14 03:28:09;;;;;;;18.80;16.95;;;21.60;99.90;;;;;;5049845;28;20017;-52
2023/06/14 03:30:36;;;;;;;19.90;18.05;;;21.60;99.90;;;;;;5053216;28;20032;-54
2023/06/14 03:33:02;;;;;;;20.27;18.25;;;21.60;99.90;;;;;;5059496;28;20037;-53
2023/06/14 03:35:28;;;;;;;19.70;17.65;;;21.60;99.90;;;;;;5063069;28;20025;-52
2023/06/14 03:37:54;;;;;;;20.07;17.97;;;21.60;99.90;;;;;;5053021;28;20036;-52
2023/06/14 03:40:21;;;;;;;19.83;17.87;;;21.60;99.90;;;;;;5047347;28;20036;-52
2023/06/14 03:42:51;;;;;;;20.90;18.70;;;21.60;99.90;;;;;;5059297;28;20028;-56
2023/06/14 03:45:18;;;;;;;20.83;18.73;;;21.60;99.90;;;;;;5058050;28;20033;-56
2023/06/14 03:47:44;;;;;;;20.13;18.15;;;21.60;99.90;;;;;;5063744;28;20043;-57
2023/06/14 03:50:10;;;;;;;19.88;17.98;;;21.60;99.90;;;;;;5051286;28;20107;-52
2023/06/14 03:52:36;;;;;;;21.85;19.52;;;21.60;99.90;;;;;;5065224;28;20127;-51
2023/06/14 03:55:04;;;;;;;36.38;20.20;;;21.60;99.90;;;;;;5053488;28;20040;-51
2023/06/14 03:57:31;;;;;;;23.88;19.90;;;21.60;99.90;;;;;;5053148;28;20059;-51
2023/06/14 03:59:57;;;;;;;23.67;21.50;;;21.50;99.90;;;;;;5053685;28;20028;-50
2023/06/14 04:02:23;;;;;;;23.00;20.77;;;21.50;99.90;;;;;;5036724;28;20517;-52
2023/06/14 04:04:49;;;;;;;26.08;22.58;;;21.40;99.90;;;;;;5054558;28;20383;-52
2023/06/14 04:07:19;;;;;;;25.00;22.15;;;21.20;99.90;;;;;;5053693;28;20032;-51
2023/06/14 04:09:45;;;;;;;21.48;19.35;;;21.10;99.90;;;;;;5053509;28;20025;-53
2023/06/14 04:12:12;;;;;;;23.23;21.05;;;21.20;99.90;;;;;;5054668;28;20027;-51
2023/06/14 04:14:41;;;;;;;23.67;21.25;;;21.10;99.90;;;;;;5053219;28;20123;-50
2023/06/14 04:17:08;;;;;;;22.27;20.10;;;21.20;99.90;;;;;;5037069;28;20025;-54
2023/06/14 04:19:36;;;;;;;31.40;20.42;;;21.30;99.90;;;;;;5053323;28;20029;-52
2023/06/14 04:22:02;;;;;;;23.15;20.67;;;21.40;99.90;;;;;;5053461;28;20033;-51
2023/06/14 04:24:31;;;;;;;21.30;19.30;;;21.50;99.90;;;;;;5053154;28;20033;-51
2023/06/14 04:27:01;;;;;;;24.23;19.77;;;21.60;99.90;;;;;;5052933;28;20449;-50
2023/06/14 04:29:29;;;;;;;23.88;19.80;;;21.60;99.90;;;;;;5053091;28;20068;-50
2023/06/14 04:32:02;;;;;;;21.33;19.08;;;21.60;99.90;;;;;;5053118;28;20021;-50
2023/06/14 04:34:33;;;;;;;24.30;19.47;;;21.70;99.90;;;;;;5052997;28;20025;-51
2023/06/14 04:37:01;;;;;;;21.98;19.70;;;21.70;99.90;;;;;;5052758;28;20268;-53
2023/06/14 04:39:36;;;;;;;20.33;18.20;;;21.70;99.20;;;;;;5052899;28;20029;-53
2023/06/14 04:42:03;;;;;;;22.98;19.15;;;21.70;98.80;;;;;;5052884;28;20037;-53
2023/06/14 04:44:31;;;;;;;21.95;19.55;;;21.70;98.40;;;;;;5052740;28;20033;-54
2023/06/14 04:46:59;;;;;;;21.38;18.95;;;21.70;98.30;;;;;;5052636;28;20048;-53
2023/06/14 04:49:27;;;;;;;22.98;20.35;;;21.80;98.30;;;;;;5053079;28;20487;-55
2023/06/14 04:51:57;;;;;;;21.88;19.67;;;21.80;98.10;;;;;;5052661;28;20025;-54
2023/06/14 04:54:27;;;;;;;22.00;19.30;;;21.90;97.90;;;;;;5052588;28;20072;-54
2023/06/14 04:56:55;;;;;;;21.55;19.48;;;21.90;97.60;;;;;;5052442;28;20135;-51
2023/06/14 04:59:23;;;;;;;22.15;19.42;;;22.00;97.40;;;;;;5052623;28;20037;-53
2023/06/14 05:01:51;;;;;;;22.60;20.23;;;22.00;96.90;;;;;;5051539;28;20035;-55
2023/06/14 05:04:18;;;;;;;21.27;19.08;;;22.00;97.10;;;;;;5035372;28;20116;-53
2023/06/14 05:06:45;;;;;;;21.75;19.55;;;22.00;97.00;;;;;;5052184;28;20025;-56
2023/06/14 05:09:12;;;;;;;22.20;19.98;;;22.00;96.70;;;;;;5052389;28;20112;-53
2023/06/14 05:11:38;;;;;;;22.42;19.58;;;22.00;96.50;;;;;;5035639;28;20025;-56
2023/06/14 05:14:04;;;;;;;20.73;18.73;;;22.00;96.50;;;;;;5053523;28;20044;-57
2023/06/14 05:16:30;;;;;;;22.67;20.03;;;22.00;96.60;;;;;;5035613;28;20033;-56
2023/06/14 05:18:56;;;;;;;22.40;19.83;;;22.00;96.60;;;;;;5053554;28;20029;-56
2023/06/14 05:21:22;;;;;;;22.55;18.85;;;22.00;96.70;;;;;;5053495;28;20044;-55
2023/06/14 05:23:48;;;;;;;22.53;18.97;;;22.10;96.80;;;;;;5052171;28;20037;-56
2023/06/14 05:26:13;;;;;;;22.10;19.33;;;22.10;96.50;;;;;;5051926;28;20053;-51
2023/06/14 05:28:39;;;;;;;20.98;18.88;;;22.10;96.40;;;;;;5053397;28;20402;-51
2023/06/14 05:31:05;;;;;;;22.77;19.70;;;22.00;96.40;;;;;;5052116;28;20037;-56
2023/06/14 05:33:31;;;;;;;20.48;18.40;;;22.10;96.20;;;;;;5051952;28;20028;-53
2023/06/14 05:35:57;;;;;;;23.23;19.03;;;22.10;96.20;;;;;;5052868;28;20040;-52
2023/06/14 05:38:22;;;;;;;22.47;16.07;;;22.20;96.20;;;;;;5053224;28;20127;-54
2023/06/14 05:40:48;;;;;;;20.77;18.70;;;22.30;95.60;;;;;;5053122;28;20021;-57
2023/06/14 05:43:14;;;;;;;20.83;18.60;;;22.30;95.70;;;;;;5052968;28;20033;-55
2023/06/14 05:45:40;;;;;;;22.67;17.30;;;22.40;95.30;;;;;;5052807;28;20047;-53
2023/06/14 05:48:06;;;;;;;20.98;18.88;;;22.40;95.30;;;;;;5052992;28;20020;-55
2023/06/14 05:50:31;;;;;;;19.30;17.30;;;22.50;95.20;;;;;;5052895;28;20021;-56
2023/06/14 05:52:57;;;;;;;19.20;17.08;;;22.50;95.20;;;;;;5052930;28;20438;-50
2023/06/14 05:55:23;;;;;;;18.43;16.53;;;22.40;95.20;;;;;;5052660;28;20057;-47
2023/06/14 05:57:49;;;;;;;20.27;17.47;;;22.50;95.40;;;;;;5052851;28;20502;-47
2023/06/14 06:00:15;;;;;;;25.07;17.80;;;22.60;95.00;;;;;;5051563;28;20025;-49
2023/06/14 06:02:43;;;;;;;19.90;17.63;;;22.60;95.50;;;;;;5052601;28;20025;-47
2023/06/14 06:05:12;;;;;;;;;;;22.60;95.50;;;;;;5052297;28;20127;-49
2023/06/14 06:07:39;;;;;;;19.48;17.02;;;22.60;95.20;;;;;;5103118;28;19958;-48
2023/06/14 06:10:06;;;;;;;21.85;17.92;;;22.60;95.60;;;;;;5054693;28;20028;-47
2023/06/14 06:12:32;;;;;;;18.90;17.00;;;22.60;95.50;;;;;;5072453;28;20033;-47
2023/06/14 06:14:59;;;;;;;20.25;18.25;;;22.60;95.60;;;;;;5070660;28;20139;-46
2023/06/14 06:17:25;;;;;;;;;;;22.70;95.60;;;;;;5072830;28;20039;-51
2023/06/14 06:19:51;;;;;;;19.52;17.35;;;22.70;95.40;;;;;;5072356;28;19904;-47
2023/06/14 06:22:17;;;;;;;17.75;16.05;;;22.70;95.70;;;;;;5070928;28;20036;-47
2023/06/14 06:24:43;;;;;;;19.40;17.17;;;22.70;95.60;;;;;;5072062;28;20036;-50
2023/06/14 06:27:08;;;;;;;19.27;16.87;;;22.70;95.40;;;;;;5071045;28;20478;-49
2023/06/14 06:29:35;;;;;;;19.90;15.90;;;22.80;95.10;;;;;;5072207;28;20028;-47
2023/06/14 06:32:01;;;;;;;19.27;15.95;;;22.80;95.10;;;;;;5072200;28;20109;-49
2023/06/14 06:34:27;;;;;;;16.73;15.05;;;22.80;94.70;;;;;;5054279;28;20036;-49
2023/06/14 06:36:53;;;;;;;16.23;14.52;;;22.90;94.60;;;;;;5071783;28;20058;-49
2023/06/14 06:39:19;;;;;;;15.93;14.07;;;22.90;94.00;;;;;;5072070;28;20032;-49
2023/06/14 06:41:45;;;;;;;16.40;14.70;;;22.80;93.80;;;;;;5070841;28;20032;-52
2023/06/14 06:44:11;;;;;;;16.10;14.40;;;22.90;93.80;;;;;;5071762;28;20035;-50
2023/06/14 06:46:42;;;;;;;17.60;14.60;;;23.00;93.40;;;;;;5070518;28;20020;-53
2023/06/14 06:49:09;;;;;;;18.40;14.57;;;23.00;93.50;;;;;;5070593;28;20111;-49
2023/06/14 06:51:36;;;;;;;15.38;13.70;;;23.10;93.90;;;;;;5071792;28;20025;-49
2023/06/14 06:54:02;;;;;;;15.27;13.57;;;23.10;93.50;;;;;;5071824;28;20077;-47
2023/06/14 06:56:29;;;;;;;15.03;12.70;;;23.10;93.90;;;;;;5071708;28;20161;-49
2023/06/14 06:58:54;;;;;;;15.90;11.65;;;23.10;93.90;;;;;;5070483;28;20467;-48
2023/06/14 07:01:20;;;;;;;16.70;11.90;;;23.10;93.40;;;;;;5071678;28;20086;-52
2023/06/14 07:03:46;;;;;;;14.33;11.60;;;23.10;92.60;;;;;;5071693;28;20028;-49
2023/06/14 07:06:12;;;;;;;13.03;11.73;;;23.10;92.20;;;;;;5071190;28;20039;-48
2023/06/14 07:08:38;;;;;;;13.57;12.07;;;23.10;92.30;;;;;;5053806;28;20255;-47
2023/06/14 07:11:05;;;;;;;13.23;11.83;;;23.10;92.60;;;;;;5071714;28;20071;-48
2023/06/14 07:13:31;;;;;;;12.82;11.20;;;23.10;92.40;;;;;;5070632;28;20153;-49
2023/06/14 07:15:59;;;;;;;12.02;10.82;;;23.10;92.30;;;;;;5071216;28;20032;-49
2023/06/14 07:18:26;;;;;;;11.57;10.38;;;23.10;92.10;;;;;;5070413;28;20056;-47
2023/06/14 07:20:53;;;;;;;13.07;11.68;;;23.10;92.10;;;;;;5070581;28;20017;-45
2023/06/14 07:23:20;;;;;;;12.52;11.27;;;23.00;92.40;;;;;;5071563;28;20437;-46
2023/06/14 07:25:46;;;;;;;16.13;12.68;;;23.10;92.30;;;;;;5071268;28;20495;-47
2023/06/14 07:28:12;;;;;;;14.97;13.47;;;23.10;92.00;;;;;;5074457;28;20108;-58
2023/06/14 07:30:38;;;;;;;15.73;13.13;;;23.00;92.30;;;;;;5075797;28;20067;-58
2023/06/14 07:33:08;;;;;;;20.08;14.90;;;23.10;92.60;;;;;;5075596;28;20326;-59
2023/06/14 07:35:34;;;;;;;19.80;12.60;;;23.10;92.60;;;;;;5073946;28;20552;-46
2023/06/14 07:38:00;;;;;;;16.85;13.43;;;22.90;92.40;;;;;;5075533;28;20029;-45
2023/06/14 07:40:26;;;;;;;14.77;13.27;;;22.90;92.60;;;;;;5075256;28;20217;-62
2023/06/14 07:42:54;;;;;;;15.33;13.73;;;22.90;92.40;;;;;;5075104;28;20104;-62
2023/06/14 07:45:19;;;;;;;21.55;13.10;;;22.90;92.70;;;;;;5073566;28;20029;-61
2023/06/14 07:47:45;;;;;;;14.77;12.27;;;22.90;92.90;;;;;;5075435;28;20375;-62
2023/06/14 07:50:12;;;;;;;14.67;11.07;;;22.90;92.30;;;;;;5075398;28;20085;-62
2023/06/14 07:52:39;;;;;;;14.05;12.25;;;22.80;92.20;;;;;;5073884;28;20082;-62
2023/06/14 07:55:05;;;;;;;13.98;11.88;;;22.80;92.70;;;;;;5075015;28;20052;-61
2023/06/14 07:57:31;;;;;;;13.18;11.77;;;22.80;93.00;;;;;;5075178;28;20036;-62
2023/06/14 07:59:57;;;;;;;15.17;11.30;;;22.80;92.70;;;;;;5073812;28;20043;-62
2023/06/14 08:02:23;;;;;;;14.80;12.10;;;22.80;92.60;;;;;;5075213;28;20070;-62
2023/06/14 08:04:49;;;;;;;12.63;11.33;;;22.80;92.30;;;;;;5100357;22;20132;-49
2023/06/14 08:07:15;;;;;;;15.50;12.63;;;22.80;92.10;;;;;;5096298;28;20036;-49
2023/06/14 08:09:41;;;;;;;15.15;11.75;;;22.80;92.60;;;;;;5113783;28;20448;-48
2023/06/14 08:12:09;;;;;;;14.70;12.43;;;22.80;92.80;;;;;;5115376;28;20107;-53
2023/06/14 08:14:36;;;;;;;13.82;12.35;;;22.80;93.00;;;;;;5113995;28;20020;-49
2023/06/14 08:17:01;;;;;;;14.38;12.48;;;22.80;92.70;;;;;;5094128;28;20030;-51
2023/06/14 08:19:28;;;;;;;15.23;12.80;;;22.80;92.90;;;;;;5093093;28;20028;-47
2023/06/14 08:21:55;;;;;;;15.00;13.40;;;22.80;93.40;;;;;;5094010;28;20516;-47
2023/06/14 08:24:29;;;;;;;19.30;13.73;;;22.80;93.40;;;;;;5094682;28;20040;-47
2023/06/14 08:26:56;;;;;;;15.60;13.40;;;22.90;92.80;;;;;;5094581;28;20024;-47
2023/06/14 08:29:22;;;;;;;14.65;13.13;;;22.80;92.90;;;;;;5094775;28;20024;-47
2023/06/14 08:31:48;;;;;;;16.80;13.10;;;22.80;93.10;;;;;;5094716;28;20081;-47
2023/06/14 08:34:14;;;;;;;14.35;12.85;;;22.80;93.00;;;;;;5094720;28;20432;-49
2023/06/14 08:36:40;;;;;;;15.43;13.87;;;22.80;93.20;;;;;;5094038;28;20028;-47
2023/06/14 08:39:08;;;;;;;15.07;12.95;;;22.90;93.20;;;;;;5094392;28;20016;-48
2023/06/14 08:41:35;;;;;;;16.33;13.77;;;22.90;92.90;;;;;;5076356;28;20024;-47
2023/06/14 08:44:01;;;;;;;15.60;13.35;;;22.90;92.80;;;;;;5094350;28;20027;-52
2023/06/14 08:46:27;;;;;;;17.10;13.87;;;23.00;92.90;;;;;;5094230;28;20171;-47
2023/06/14 08:48:56;;;;;;;18.30;13.75;;;23.00;92.80;;;;;;5094406;28;20482;-48
2023/06/14 08:51:26;;;;;;;19.65;13.68;;;23.00;93.20;;;;;;5094151;28;20413;-47
2023/06/14 08:53:59;;;;;;;15.88;13.45;;;23.00;93.30;;;;;;5094311;28;20042;-47
2023/06/14 08:56:29;;;;;;;21.83;18.60;;;23.10;93.40;;;;;;5094141;28;20060;-47
2023/06/14 08:58:56;;;;;;;23.55;16.48;;;23.10;92.90;;;;;;5076030;28;20039;-47
2023/06/14 09:01:23;;;;;;;16.55;12.70;;;23.10;93.30;;;;;;5094107;28;20440;-51
2023/06/14 09:03:50;;;;;;;16.15;12.18;;;23.10;92.80;;;;;;5075782;28;20043;-47
2023/06/14 09:06:15;;;;;;;;;;;23.10;92.80;;;;;;5075871;28;20555;-48
2023/06/14 09:08:46;;;;;;;16.13;13.00;;;23.10;91.90;;;;;;5093995;28;19908;-47
2023/06/14 09:11:18;;;;;;;15.27;12.75;;;23.10;92.70;;;;;;5093977;28;20016;-47
2023/06/14 09:13:47;;;;;;;19.20;11.73;;;23.10;93.30;;;;;;5093945;28;20035;-50
2023/06/14 09:16:13;;;;;;;16.55;13.30;;;23.10;93.00;;;;;;5093380;28;20027;-47
2023/06/14 09:18:44;;;;;;;15.73;14.13;;;23.10;93.30;;;;;;5093785;28;20351;-47
2023/06/14 09:21:11;;;;;;;17.25;14.20;;;23.10;93.70;;;;;;5093613;28;20123;-49
2023/06/14 09:23:38;;;;;;;16.50;13.60;;;23.20;94.40;;;;;;5093623;28;20031;-48
2023/06/14 09:26:16;;;;;;;14.50;12.82;;;23.20;94.70;;;;;;5093402;28;20405;-52
2023/06/14 09:28:44;;;;;;;16.63;14.02;;;23.20;94.20;;;;;;5093568;28;20413;-49
2023/06/14 09:31:14;;;;;;;15.80;13.52;;;23.20;94.40;;;;;;5093519;28;20020;-47
2023/06/14 09:33:47;;;;;;;14.48;12.30;;;23.30;94.30;;;;;;5093455;28;20028;-48
2023/06/14 09:36:18;;;;;;;14.45;12.95;;;23.40;94.00;;;;;;5093299;28;20074;-47
2023/06/14 09:38:54;;;;;;;16.40;13.98;;;23.30;94.20;;;;;;5058921;28;20057;-50
2023/06/14 09:41:20;;;;;;;15.77;14.18;;;23.40;94.50;;;;;;5093182;28;20058;-47
2023/06/14 09:43:47;;;;;;;16.05;14.48;;;23.50;94.40;;;;;;5058374;28;20032;-49
2023/06/14 09:46:13;;;;;;;;;;;23.50;94.60;;;;;;5093411;28;20116;-47
2023/06/14 09:48:42;;;;;;;13.68;12.27;;;23.60;94.60;;;;;;5092493;28;19927;-47
2023/06/14 09:51:11;;;;;;;18.98;13.15;;;23.60;94.20;;;;;;5074966;28;20033;-47
2023/06/14 09:53:38;;;;;;;14.82;12.32;;;23.70;93.90;;;;;;5074810;28;20020;-47
2023/06/14 09:56:05;;;;;;;13.68;12.30;;;23.70;93.60;;;;;;5074500;28;20036;-52
2023/06/14 09:58:35;;;;;;;;;;;23.80;93.10;;;;;;5093510;28;20126;-50
2023/06/14 10:01:01;;;;;;;15.80;12.77;;;23.80;91.30;;;;;;5074859;28;20368;-47
2023/06/14 10:03:29;;;;;;;14.82;13.23;;;23.90;91.70;;;;;;5092860;28;20032;-48
2023/06/14 10:06:00;;;;;;;14.80;12.55;;;24.00;91.80;;;;;;5092475;28;20020;-47
2023/06/14 10:08:30;;;;;;;16.00;12.35;;;24.00;91.20;;;;;;5092801;28;20028;-48
2023/06/14 10:10:56;;;;;;;15.63;12.23;;;24.10;90.40;;;;;;5092993;28;20355;-47
2023/06/14 10:13:23;;;;;;;16.20;13.77;;;24.30;90.80;;;;;;5092685;28;20020;-49
2023/06/14 10:16:26;;;;;;;16.15;12.57;;;24.30;90.10;;;;;;5092409;28;20512;-47
2023/06/14 10:19:01;;;;;;;13.52;12.02;;;24.40;88.80;;;;;;5050941;28;20043;-47
2023/06/14 10:21:55;;;;;;;14.60;11.23;;;24.50;88.70;;;;;;5092462;28;20038;-47
2023/06/14 10:24:34;;;;;;;12.55;10.85;;;24.60;82.90;;;;;;5092225;28;20031;-48
2023/06/14 10:27:00;;;;;;;13.73;10.90;;;24.70;83.00;;;;;;5073930;28;20032;-50
2023/06/14 10:29:32;;;;;;;14.88;11.43;;;24.70;84.10;;;;;;5073551;28;20032;-50
2023/06/14 10:32:00;;;;;;;15.38;11.35;;;24.70;83.50;;;;;;5091400;28;20024;-47
2023/06/14 10:34:28;;;;;;;12.43;11.00;;;24.80;81.80;;;;;;5086500;28;20032;-49
2023/06/14 10:37:20;;;;;;;20.70;9.93;;;24.80;81.90;;;;;;5096168;28;20102;-48
2023/06/14 10:39:46;;;;;;;13.07;10.75;;;24.80;81.30;;;;;;5086280;28;20126;-55
2023/06/14 10:42:13;;;;;;;11.52;9.55;;;24.90;82.30;;;;;;5091659;28;20024;-52
2023/06/14 10:44:40;;;;;;;11.80;10.70;;;24.90;80.30;;;;;;5089961;28;20027;-50
2023/06/14 10:47:29;;;;;;;12.45;10.93;;;25.00;81.00;;;;;;5091626;28;20032;-48
2023/06/14 10:50:08;;;;;;;11.52;10.07;;;25.10;79.40;;;;;;5068835;28;20072;-45
2023/06/14 10:52:41;;;;;;;16.58;11.07;;;25.10;80.30;;;;;;5086949;28;20016;-48
2023/06/14 10:55:14;;;;;;;14.93;10.57;;;25.20;78.60;;;;;;5085609;28;20594;-46
2023/06/14 10:57:51;;;;;;;15.95;9.77;;;25.30;80.30;;;;;;5091334;28;20027;-48
2023/06/14 11:00:27;;;;;;;18.75;11.50;;;25.40;78.10;;;;;;5082340;28;20024;-55
2023/06/14 11:03:15;;;;;;;13.55;9.55;;;25.60;78.20;;;;;;5091719;28;20056;-56
2023/06/14 11:05:54;;;;;;;11.00;9.95;;;25.60;77.40;;;;;;5087263;28;20052;-57
2023/06/14 11:08:48;;;;;;;11.00;9.80;;;25.70;75.50;;;;;;5091952;28;20103;-55
2023/06/14 11:11:15;;;;;;;14.68;11.10;;;25.80;75.60;;;;;;5111956;28;20024;-55
2023/06/14 11:13:44;;;;;;;11.65;10.52;;;25.80;74.60;;;;;;5082537;28;20024;-55
2023/06/14 11:16:14;;;;;;;11.77;10.23;;;25.90;74.30;;;;;;5090692;28;20028;-57
2023/06/14 11:18:41;;;;;;;15.90;11.20;;;26.10;74.30;;;;;;5091084;28;20636;-60
2023/06/14 11:21:08;;;;;;;17.13;10.65;;;26.40;74.00;;;;;;5058788;28;20049;-58
2023/06/14 11:23:35;;;;;;;13.00;9.90;;;26.70;72.80;;;;;;5111474;28;20035;-56
2023/06/14 11:26:01;;;;;;;;;;;27.00;72.10;;;;;;5083428;28;20034;-55
2023/06/14 11:28:47;;;;;;;14.00;10.23;;;27.10;71.30;;;;;;5073358;28;19908;-55
2023/06/14 11:31:13;;;;;;;11.80;9.27;;;27.40;69.90;;;;;;5090767;28;20031;-55
2023/06/14 11:33:38;;;;;;;19.33;17.53;;;27.50;69.40;;;;;;5090881;28;20393;-55
2023/06/14 11:36:08;;;;;;;12.83;10.77;;;27.40;70.20;;;;;;5090189;28;20042;-52
2023/06/14 11:38:37;;;;;;;12.57;10.10;;;27.40;69.20;;;;;;5091413;28;20036;-58
2023/06/14 11:41:03;;;;;;;11.52;9.90;;;27.50;68.60;;;;;;5091190;28;20035;-61
2023/06/14 11:43:31;;;;;;;10.27;9.27;;;27.40;70.40;;;;;;5073353;28;20024;-61
2023/06/14 11:45:57;;;;;;;11.20;9.80;;;27.50;68.10;;;;;;5090619;28;20395;-61
2023/06/14 11:48:23;;;;;;;12.07;10.00;;;27.80;68.60;;;;;;5091278;28;20020;-61
2023/06/14 11:50:51;;;;;;;11.43;9.97;;;27.90;69.00;;;;;;5091093;28;20081;-59
2023/06/14 11:53:17;;;;;;;9.68;8.25;;;28.30;70.00;;;;;;5086126;28;20107;-60
2023/06/14 11:55:46;;;;;;;7.43;6.72;;;28.50;65.80;;;;;;5090858;28;20036;-61
2023/06/14 11:58:13;;;;;;;9.65;7.63;;;28.60;66.00;;;;;;5091084;28;20028;-60
2023/06/14 12:00:39;;;;;;;8.38;7.57;;;28.70;65.80;;;;;;5090848;28;20024;-61
2023/06/14 12:03:06;;;;;;;9.50;8.40;;;28.70;64.50;;;;;;5090940;28;20543;-60
2023/06/14 12:05:34;;;;;;;8.77;7.88;;;28.70;64.00;;;;;;5072599;28;20028;-59
2023/06/14 12:08:02;;;;;;;8.20;7.38;;;28.80;63.80;;;;;;5090907;28;20028;-62
2023/06/14 12:10:28;;;;;;;11.52;7.68;;;28.90;63.30;;;;;;5090926;28;20020;-60
2023/06/14 12:12:59;;;;;;;8.48;7.68;;;28.90;64.20;;;;;;5093933;28;20524;-62
2023/06/14 12:15:28;;;;;;;8.02;7.28;;;29.00;63.80;;;;;;5094298;28;20031;-62
2023/06/14 12:17:54;;;;;;;10.13;7.72;;;28.90;64.80;;;;;;5094586;28;20047;-61
2023/06/14 12:20:21;;;;;;;10.52;8.77;;;28.90;62.80;;;;;;5076480;28;20055;-59
2023/06/14 12:22:52;;;;;;;10.27;9.05;;;28.70;63.60;;;;;;5094341;28;20024;-62
2023/06/14 12:25:44;;;;;;;9.85;8.70;;;28.60;62.80;;;;;;5094368;28;20063;-59
2023/06/14 12:28:10;;;;;;;9.50;8.02;;;28.60;61.70;;;;;;5092641;28;20032;-62
2023/06/14 12:30:37;;;;;;;7.47;6.68;;;28.60;63.50;;;;;;5094171;28;20019;-62
2023/06/14 12:33:03;;;;;;;;;;;28.90;64.00;;;;;;5094771;28;20039;-63
2023/06/14 12:35:29;;;;;;;8.48;7.68;;;28.90;60.10;;;;;;5094231;28;20104;-60
2023/06/14 12:37:56;;;;;;;7.40;6.27;;;29.10;64.30;;;;;;5075974;28;20504;-58